sensor_id;sensor_type;location;lat;lon;timestamp;P1;durP1;ratioP1;P2;durP2;ratioP2
75169;SDS011;63749;49.186;9.222;2023-02-01T00:01:13;7.23;;;4.00;;
75169;SDS011;63749;49.186;9.222;2023-02-01T00:03:38;7.97;;;3.90;;
75169;SDS011;63749;49.186;9.222;2023-02-01T00:06:04;7.53;;;4.20;;
75169;SDS011;63749;49.186;9.222;2023-02-01T00:08:29;6.47;;;3.65;;
75169;SDS011;63749;49.186;9.222;2023-02-01T00:11:02;7.27;;;3.67;;
75169;SDS011;63749;49.186;9.222;2023-02-01T00:13:30;6.57;;;3.42;;
75169;SDS011;63749;49.186;9.222;2023-02-01T00:16:07;7.72;;;3.60;;
75169;SDS011;63749;49.186;9.222;2023-02-01T00:18:37;9.40;;;4.27;;
75169;SDS011;63749;49.186;9.222;2023-02-01T00:21:03;6.93;;;3.67;;
75169;SDS011;63749;49.186;9.222;2023-02-01T00:23:31;6.80;;;3.45;;
75169;SDS011;63749;49.186;9.222;2023-02-01T00:25:59;7.50;;;4.18;;
75169;SDS011;63749;49.186;9.222;2023-02-01T00:28:26;8.80;;;4.07;;
75169;SDS011;63749;49.186;9.222;2023-02-01T00:30:58;8.30;;;3.67;;
75169;SDS011;63749;49.186;9.222;2023-02-01T00:33:24;8.40;;;3.80;;
75169;SDS011;63749;49.186;9.222;2023-02-01T00:35:50;8.63;;;3.90;;
75169;SDS011;63749;49.186;9.222;2023-02-01T00:38:15;8.13;;;3.63;;
75169;SDS011;63749;49.186;9.222;2023-02-01T00:40:41;8.40;;;3.80;;
75169;SDS011;63749;49.186;9.222;2023-02-01T00:43:06;6.87;;;3.80;;
75169;SDS011;63749;49.186;9.222;2023-02-01T00:45:31;7.67;;;3.77;;
75169;SDS011;63749;49.186;9.222;2023-02-01T00:47:57;6.70;;;3.07;;
75169;SDS011;63749;49.186;9.222;2023-02-01T00:50:22;5.73;;;3.37;;
75169;SDS011;63749;49.186;9.222;2023-02-01T00:52:48;6.70;;;3.77;;
75169;SDS011;63749;49.186;9.222;2023-02-01T00:55:13;6.20;;;3.33;;
75169;SDS011;63749;49.186;9.222;2023-02-01T00:57:38;5.95;;;3.53;;
75169;SDS011;63749;49.186;9.222;2023-02-01T01:00:04;6.00;;;3.27;;
75169;SDS011;63749;49.186;9.222;2023-02-01T01:02:30;6.63;;;3.50;;
75169;SDS011;63749;49.186;9.222;2023-02-01T01:04:55;5.47;;;3.20;;
75169;SDS011;63749;49.186;9.222;2023-02-01T01:07:20;6.57;;;3.20;;
75169;SDS011;63749;49.186;9.222;2023-02-01T01:09:46;7.90;;;3.53;;
75169;SDS011;63749;49.186;9.222;2023-02-01T01:12:11;6.18;;;3.65;;
75169;SDS011;63749;49.186;9.222;2023-02-01T01:14:37;6.27;;;3.30;;
75169;SDS011;63749;49.186;9.222;2023-02-01T01:17:02;6.10;;;3.40;;
75169;SDS011;63749;49.186;9.222;2023-02-01T01:19:28;6.33;;;3.47;;
75169;SDS011;63749;49.186;9.222;2023-02-01T01:21:53;6.53;;;3.22;;
75169;SDS011;63749;49.186;9.222;2023-02-01T01:24:18;5.50;;;2.97;;
75169;SDS011;63749;49.186;9.222;2023-02-01T01:26:44;6.57;;;3.50;;
75169;SDS011;63749;49.186;9.222;2023-02-01T01:29:09;6.27;;;3.27;;
75169;SDS011;63749;49.186;9.222;2023-02-01T01:31:36;6.55;;;3.90;;
75169;SDS011;63749;49.186;9.222;2023-02-01T01:34:01;4.97;;;2.80;;
75169;SDS011;63749;49.186;9.222;2023-02-01T01:36:27;6.13;;;3.35;;
75169;SDS011;63749;49.186;9.222;2023-02-01T01:38:53;6.47;;;3.70;;
75169;SDS011;63749;49.186;9.222;2023-02-01T01:41:20;6.78;;;3.40;;
75169;SDS011;63749;49.186;9.222;2023-02-01T01:46:54;7.35;;;3.72;;
75169;SDS011;63749;49.186;9.222;2023-02-01T01:49:20;6.57;;;3.57;;
75169;SDS011;63749;49.186;9.222;2023-02-01T01:51:59;7.50;;;3.00;;
75169;SDS011;63749;49.186;9.222;2023-02-01T01:54:43;6.13;;;3.60;;
75169;SDS011;63749;49.186;9.222;2023-02-01T01:57:13;6.55;;;3.03;;
75169;SDS011;63749;49.186;9.222;2023-02-01T01:59:43;6.65;;;3.35;;
75169;SDS011;63749;49.186;9.222;2023-02-01T02:02:12;7.47;;;3.27;;
75169;SDS011;63749;49.186;9.222;2023-02-01T02:04:38;7.03;;;3.60;;
75169;SDS011;63749;49.186;9.222;2023-02-01T02:07:05;7.33;;;3.27;;
75169;SDS011;63749;49.186;9.222;2023-02-01T02:09:51;6.30;;;3.30;;
75169;SDS011;63749;49.186;9.222;2023-02-01T02:12:17;7.63;;;3.70;;
75169;SDS011;63749;49.186;9.222;2023-02-01T02:14:42;7.60;;;3.40;;
75169;SDS011;63749;49.186;9.222;2023-02-01T02:25:18;7.13;;;3.55;;
75169;SDS011;63749;49.186;9.222;2023-02-01T02:28:00;7.38;;;3.58;;
75169;SDS011;63749;49.186;9.222;2023-02-01T02:38:45;7.72;;;3.47;;
75169;SDS011;63749;49.186;9.222;2023-02-01T02:47:24;7.68;;;3.70;;
75169;SDS011;63749;49.186;9.222;2023-02-01T02:53:17;7.20;;;2.85;;
75169;SDS011;63749;49.186;9.222;2023-02-01T02:56:04;6.72;;;3.25;;
75169;SDS011;63749;49.186;9.222;2023-02-01T02:58:50;7.13;;;3.17;;
75169;SDS011;63749;49.186;9.222;2023-02-01T03:01:36;7.15;;;3.03;;
75169;SDS011;63749;49.186;9.222;2023-02-01T03:04:21;8.15;;;3.25;;
75169;SDS011;63749;49.186;9.222;2023-02-01T03:06:48;5.35;;;2.78;;
75169;SDS011;63749;49.186;9.222;2023-02-01T03:09:26;6.03;;;3.13;;
75169;SDS011;63749;49.186;9.222;2023-02-01T03:11:58;4.72;;;2.70;;
75169;SDS011;63749;49.186;9.222;2023-02-01T03:14:47;5.00;;;2.80;;
75169;SDS011;63749;49.186;9.222;2023-02-01T03:17:19;4.90;;;2.60;;
75169;SDS011;63749;49.186;9.222;2023-02-01T03:19:52;5.70;;;2.90;;
75169;SDS011;63749;49.186;9.222;2023-02-01T03:22:23;6.17;;;3.40;;
75169;SDS011;63749;49.186;9.222;2023-02-01T03:24:55;4.75;;;2.47;;
75169;SDS011;63749;49.186;9.222;2023-02-01T03:27:29;5.47;;;2.97;;
75169;SDS011;63749;49.186;9.222;2023-02-01T03:30:06;5.32;;;2.97;;
75169;SDS011;63749;49.186;9.222;2023-02-01T03:32:33;6.63;;;2.70;;
75169;SDS011;63749;49.186;9.222;2023-02-01T03:35:20;6.17;;;3.07;;
75169;SDS011;63749;49.186;9.222;2023-02-01T03:37:53;7.32;;;2.90;;
75169;SDS011;63749;49.186;9.222;2023-02-01T03:40:26;6.80;;;3.20;;
75169;SDS011;63749;49.186;9.222;2023-02-01T03:42:54;8.07;;;3.25;;
75169;SDS011;63749;49.186;9.222;2023-02-01T03:45:26;5.82;;;3.30;;
75169;SDS011;63749;49.186;9.222;2023-02-01T03:48:01;6.33;;;3.17;;
75169;SDS011;63749;49.186;9.222;2023-02-01T03:50:27;5.32;;;2.85;;
75169;SDS011;63749;49.186;9.222;2023-02-01T03:53:05;6.47;;;3.13;;
75169;SDS011;63749;49.186;9.222;2023-02-01T03:55:34;7.13;;;3.35;;
75169;SDS011;63749;49.186;9.222;2023-02-01T03:58:03;6.15;;;3.15;;
75169;SDS011;63749;49.186;9.222;2023-02-01T04:00:33;7.33;;;3.70;;
75169;SDS011;63749;49.186;9.222;2023-02-01T04:02:58;8.73;;;3.63;;
75169;SDS011;63749;49.186;9.222;2023-02-01T04:05:24;7.03;;;3.67;;
75169;SDS011;63749;49.186;9.222;2023-02-01T04:07:49;6.70;;;3.13;;
75169;SDS011;63749;49.186;9.222;2023-02-01T04:10:15;7.93;;;3.90;;
75169;SDS011;63749;49.186;9.222;2023-02-01T04:12:41;8.52;;;4.40;;
75169;SDS011;63749;49.186;9.222;2023-02-01T04:15:07;7.23;;;3.30;;
75169;SDS011;63749;49.186;9.222;2023-02-01T04:17:33;7.57;;;3.65;;
75169;SDS011;63749;49.186;9.222;2023-02-01T04:19:58;6.70;;;3.60;;
75169;SDS011;63749;49.186;9.222;2023-02-01T04:22:23;7.63;;;3.30;;
75169;SDS011;63749;49.186;9.222;2023-02-01T04:24:49;6.33;;;3.57;;
75169;SDS011;63749;49.186;9.222;2023-02-01T04:27:14;5.32;;;3.03;;
75169;SDS011;63749;49.186;9.222;2023-02-01T04:29:39;7.50;;;3.70;;
75169;SDS011;63749;49.186;9.222;2023-02-01T04:32:06;6.18;;;3.50;;
75169;SDS011;63749;49.186;9.222;2023-02-01T04:34:31;10.50;;;3.20;;
75169;SDS011;63749;49.186;9.222;2023-02-01T04:36:56;6.77;;;2.97;;
75169;SDS011;63749;49.186;9.222;2023-02-01T04:39:22;7.57;;;3.87;;
75169;SDS011;63749;49.186;9.222;2023-02-01T04:41:47;7.95;;;3.90;;
75169;SDS011;63749;49.186;9.222;2023-02-01T04:44:13;9.30;;;4.10;;
75169;SDS011;63749;49.186;9.222;2023-02-01T04:46:41;6.90;;;3.47;;
75169;SDS011;63749;49.186;9.222;2023-02-01T04:49:07;7.03;;;3.43;;
75169;SDS011;63749;49.186;9.222;2023-02-01T04:51:34;8.52;;;3.85;;
75169;SDS011;63749;49.186;9.222;2023-02-01T04:53:59;7.53;;;4.20;;
75169;SDS011;63749;49.186;9.222;2023-02-01T04:56:25;7.43;;;4.25;;
75169;SDS011;63749;49.186;9.222;2023-02-01T04:58:50;7.03;;;3.67;;
75169;SDS011;63749;49.186;9.222;2023-02-01T05:01:15;6.93;;;3.70;;
75169;SDS011;63749;49.186;9.222;2023-02-01T05:03:41;6.80;;;3.53;;
75169;SDS011;63749;49.186;9.222;2023-02-01T05:06:06;6.77;;;3.37;;
75169;SDS011;63749;49.186;9.222;2023-02-01T05:08:32;5.95;;;3.10;;
75169;SDS011;63749;49.186;9.222;2023-02-01T05:10:58;10.07;;;3.80;;
75169;SDS011;63749;49.186;9.222;2023-02-01T05:13:24;6.55;;;3.05;;
75169;SDS011;63749;49.186;9.222;2023-02-01T05:16:08;7.57;;;3.80;;
75169;SDS011;63749;49.186;9.222;2023-02-01T05:18:33;6.77;;;2.83;;
75169;SDS011;63749;49.186;9.222;2023-02-01T05:20:59;6.57;;;3.10;;
75169;SDS011;63749;49.186;9.222;2023-02-01T05:23:24;6.57;;;3.10;;
75169;SDS011;63749;49.186;9.222;2023-02-01T05:25:49;5.57;;;2.90;;
75169;SDS011;63749;49.186;9.222;2023-02-01T05:28:15;5.80;;;3.07;;
75169;SDS011;63749;49.186;9.222;2023-02-01T05:30:40;5.87;;;3.27;;
75169;SDS011;63749;49.186;9.222;2023-02-01T05:33:05;5.70;;;2.33;;
75169;SDS011;63749;49.186;9.222;2023-02-01T05:35:31;6.20;;;3.10;;
75169;SDS011;63749;49.186;9.222;2023-02-01T05:37:56;4.10;;;2.33;;
75169;SDS011;63749;49.186;9.222;2023-02-01T05:40:21;5.80;;;2.77;;
75169;SDS011;63749;49.186;9.222;2023-02-01T05:42:47;5.13;;;2.50;;
75169;SDS011;63749;49.186;9.222;2023-02-01T05:45:13;7.87;;;3.10;;
75169;SDS011;63749;49.186;9.222;2023-02-01T05:47:38;4.90;;;2.50;;
75169;SDS011;63749;49.186;9.222;2023-02-01T05:50:04;5.20;;;2.87;;
75169;SDS011;63749;49.186;9.222;2023-02-01T05:52:30;5.25;;;2.58;;
75169;SDS011;63749;49.186;9.222;2023-02-01T05:54:56;8.33;;;2.70;;
75169;SDS011;63749;49.186;9.222;2023-02-01T05:57:21;7.63;;;2.90;;
75169;SDS011;63749;49.186;9.222;2023-02-01T05:59:48;4.60;;;2.95;;
75169;SDS011;63749;49.186;9.222;2023-02-01T06:02:17;5.87;;;3.40;;
75169;SDS011;63749;49.186;9.222;2023-02-01T06:04:43;6.63;;;3.20;;
75169;SDS011;63749;49.186;9.222;2023-02-01T06:07:08;6.07;;;3.57;;
75169;SDS011;63749;49.186;9.222;2023-02-01T06:09:36;6.53;;;3.30;;
75169;SDS011;63749;49.186;9.222;2023-02-01T06:12:02;7.07;;;2.92;;
75169;SDS011;63749;49.186;9.222;2023-02-01T06:14:29;4.90;;;2.55;;
75169;SDS011;63749;49.186;9.222;2023-02-01T06:16:55;4.17;;;2.17;;
75169;SDS011;63749;49.186;9.222;2023-02-01T06:19:21;4.15;;;2.45;;
75169;SDS011;63749;49.186;9.222;2023-02-01T06:21:46;5.77;;;2.90;;
75169;SDS011;63749;49.186;9.222;2023-02-01T06:24:12;6.13;;;2.90;;
75169;SDS011;63749;49.186;9.222;2023-02-01T06:26:38;7.03;;;3.60;;
75169;SDS011;63749;49.186;9.222;2023-02-01T06:29:05;7.82;;;3.53;;
75169;SDS011;63749;49.186;9.222;2023-02-01T06:31:31;6.95;;;3.40;;
75169;SDS011;63749;49.186;9.222;2023-02-01T06:33:57;7.53;;;3.13;;
75169;SDS011;63749;49.186;9.222;2023-02-01T06:36:22;5.85;;;3.50;;
75169;SDS011;63749;49.186;9.222;2023-02-01T06:38:48;9.70;;;4.20;;
75169;SDS011;63749;49.186;9.222;2023-02-01T06:41:13;10.20;;;4.40;;
75169;SDS011;63749;49.186;9.222;2023-02-01T06:43:39;7.85;;;4.20;;
75169;SDS011;63749;49.186;9.222;2023-02-01T06:46:06;7.80;;;3.77;;
75169;SDS011;63749;49.186;9.222;2023-02-01T06:48:33;8.57;;;3.55;;
75169;SDS011;63749;49.186;9.222;2023-02-01T06:50:59;9.23;;;4.05;;
75169;SDS011;63749;49.186;9.222;2023-02-01T06:53:24;9.50;;;4.67;;
75169;SDS011;63749;49.186;9.222;2023-02-01T06:55:53;12.43;;;4.72;;
75169;SDS011;63749;49.186;9.222;2023-02-01T06:58:20;8.97;;;4.50;;
75169;SDS011;63749;49.186;9.222;2023-02-01T07:00:45;10.00;;;4.47;;
75169;SDS011;63749;49.186;9.222;2023-02-01T07:03:10;12.27;;;4.17;;
75169;SDS011;63749;49.186;9.222;2023-02-01T07:05:36;8.03;;;3.93;;
75169;SDS011;63749;49.186;9.222;2023-02-01T07:08:01;8.67;;;4.57;;
75169;SDS011;63749;49.186;9.222;2023-02-01T07:10:26;9.30;;;4.50;;
75169;SDS011;63749;49.186;9.222;2023-02-01T07:12:52;8.50;;;4.03;;
75169;SDS011;63749;49.186;9.222;2023-02-01T07:15:17;7.50;;;3.87;;
75169;SDS011;63749;49.186;9.222;2023-02-01T07:17:42;10.48;;;3.97;;
75169;SDS011;63749;49.186;9.222;2023-02-01T07:20:09;7.57;;;3.63;;
75169;SDS011;63749;49.186;9.222;2023-02-01T07:22:36;8.63;;;4.20;;
75169;SDS011;63749;49.186;9.222;2023-02-01T07:25:02;9.43;;;4.10;;
75169;SDS011;63749;49.186;9.222;2023-02-01T07:27:27;9.80;;;4.20;;
75169;SDS011;63749;49.186;9.222;2023-02-01T07:29:53;10.97;;;4.30;;
75169;SDS011;63749;49.186;9.222;2023-02-01T07:32:20;11.10;;;4.50;;
75169;SDS011;63749;49.186;9.222;2023-02-01T07:34:45;8.40;;;4.23;;
75169;SDS011;63749;49.186;9.222;2023-02-01T07:37:11;6.97;;;3.90;;
75169;SDS011;63749;49.186;9.222;2023-02-01T07:39:36;6.17;;;3.30;;
75169;SDS011;63749;49.186;9.222;2023-02-01T07:42:01;10.50;;;4.60;;
75169;SDS011;63749;49.186;9.222;2023-02-01T07:44:27;9.27;;;4.20;;
75169;SDS011;63749;49.186;9.222;2023-02-01T07:46:52;8.88;;;4.43;;
75169;SDS011;63749;49.186;9.222;2023-02-01T07:49:17;6.57;;;3.00;;
75169;SDS011;63749;49.186;9.222;2023-02-01T07:51:43;6.63;;;3.00;;
75169;SDS011;63749;49.186;9.222;2023-02-01T07:54:09;6.20;;;3.40;;
75169;SDS011;63749;49.186;9.222;2023-02-01T07:56:34;6.68;;;3.20;;
75169;SDS011;63749;49.186;9.222;2023-02-01T07:59:00;6.67;;;3.37;;
75169;SDS011;63749;49.186;9.222;2023-02-01T08:01:27;9.55;;;3.50;;
75169;SDS011;63749;49.186;9.222;2023-02-01T08:03:54;9.32;;;4.28;;
75169;SDS011;63749;49.186;9.222;2023-02-01T08:06:24;8.68;;;3.80;;
75169;SDS011;63749;49.186;9.222;2023-02-01T08:08:50;10.43;;;4.60;;
75169;SDS011;63749;49.186;9.222;2023-02-01T08:11:17;11.10;;;4.80;;
75169;SDS011;63749;49.186;9.222;2023-02-01T08:13:43;10.60;;;4.32;;
75169;SDS011;63749;49.186;9.222;2023-02-01T08:16:09;9.17;;;4.57;;
75169;SDS011;63749;49.186;9.222;2023-02-01T08:18:36;10.07;;;4.97;;
75169;SDS011;63749;49.186;9.222;2023-02-01T08:21:06;9.57;;;4.90;;
75169;SDS011;63749;49.186;9.222;2023-02-01T08:23:33;8.25;;;3.92;;
75169;SDS011;63749;49.186;9.222;2023-02-01T08:26:04;13.30;;;5.45;;
75169;SDS011;63749;49.186;9.222;2023-02-01T08:28:34;9.17;;;4.20;;
75169;SDS011;63749;49.186;9.222;2023-02-01T08:31:03;10.65;;;4.50;;
75169;SDS011;63749;49.186;9.222;2023-02-01T08:33:30;10.23;;;4.95;;
75169;SDS011;63749;49.186;9.222;2023-02-01T08:35:55;10.30;;;4.67;;
75169;SDS011;63749;49.186;9.222;2023-02-01T08:38:20;11.70;;;4.80;;
75169;SDS011;63749;49.186;9.222;2023-02-01T08:40:46;14.07;;;5.00;;
75169;SDS011;63749;49.186;9.222;2023-02-01T08:43:11;16.17;;;5.17;;
75169;SDS011;63749;49.186;9.222;2023-02-01T08:45:36;15.80;;;5.83;;
75169;SDS011;63749;49.186;9.222;2023-02-01T08:48:02;15.45;;;5.82;;
75169;SDS011;63749;49.186;9.222;2023-02-01T08:50:27;16.00;;;6.17;;
75169;SDS011;63749;49.186;9.222;2023-02-01T08:52:53;13.57;;;5.80;;
75169;SDS011;63749;49.186;9.222;2023-02-01T08:55:19;15.35;;;5.63;;
75169;SDS011;63749;49.186;9.222;2023-02-01T08:57:44;15.80;;;5.50;;
75169;SDS011;63749;49.186;9.222;2023-02-01T09:00:11;16.03;;;5.77;;
75169;SDS011;63749;49.186;9.222;2023-02-01T09:02:38;15.88;;;6.00;;
75169;SDS011;63749;49.186;9.222;2023-02-01T09:05:03;12.40;;;5.67;;
75169;SDS011;63749;49.186;9.222;2023-02-01T09:07:29;13.15;;;5.63;;
75169;SDS011;63749;49.186;9.222;2023-02-01T09:09:55;12.40;;;5.20;;
75169;SDS011;63749;49.186;9.222;2023-02-01T09:12:21;11.23;;;4.70;;
75169;SDS011;63749;49.186;9.222;2023-02-01T09:14:47;10.68;;;5.03;;
75169;SDS011;63749;49.186;9.222;2023-02-01T09:17:12;13.53;;;5.27;;
75169;SDS011;63749;49.186;9.222;2023-02-01T09:19:38;13.25;;;5.72;;
75169;SDS011;63749;49.186;9.222;2023-02-01T09:22:05;12.82;;;4.45;;
75169;SDS011;63749;49.186;9.222;2023-02-01T09:24:30;13.70;;;4.83;;
75169;SDS011;63749;49.186;9.222;2023-02-01T09:26:56;10.23;;;4.17;;
75169;SDS011;63749;49.186;9.222;2023-02-01T09:29:21;14.30;;;4.50;;
75169;SDS011;63749;49.186;9.222;2023-02-01T09:31:46;8.00;;;3.77;;
75169;SDS011;63749;49.186;9.222;2023-02-01T09:34:12;10.50;;;4.40;;
75169;SDS011;63749;49.186;9.222;2023-02-01T09:36:37;11.65;;;4.65;;
75169;SDS011;63749;49.186;9.222;2023-02-01T09:39:02;10.17;;;4.13;;
75169;SDS011;63749;49.186;9.222;2023-02-01T09:47:22;10.00;;;3.70;;
75169;SDS011;63749;49.186;9.222;2023-02-01T09:49:55;13.15;;;4.32;;
75169;SDS011;63749;49.186;9.222;2023-02-01T09:52:31;11.65;;;3.55;;
75169;SDS011;63749;49.186;9.222;2023-02-01T09:55:04;10.23;;;4.30;;
75169;SDS011;63749;49.186;9.222;2023-02-01T10:00:34;12.80;;;4.35;;
75169;SDS011;63749;49.186;9.222;2023-02-01T10:03:01;13.35;;;4.05;;
75169;SDS011;63749;49.186;9.222;2023-02-01T10:16:58;10.25;;;3.60;;
75169;SDS011;63749;49.186;9.222;2023-02-01T10:19:45;13.00;;;3.65;;
75169;SDS011;63749;49.186;9.222;2023-02-01T10:22:46;17.90;;;4.28;;
75169;SDS011;63749;49.186;9.222;2023-02-01T10:25:51;13.10;;;3.08;;
75169;SDS011;63749;49.186;9.222;2023-02-01T10:28:16;12.27;;;3.97;;
75169;SDS011;63749;49.186;9.222;2023-02-01T10:30:43;15.45;;;3.97;;
75169;SDS011;63749;49.186;9.222;2023-02-01T10:33:44;13.50;;;3.55;;
75169;SDS011;63749;49.186;9.222;2023-02-01T10:38:53;16.95;;;3.17;;
75169;SDS011;63749;49.186;9.222;2023-02-01T10:41:20;8.37;;;2.60;;
75169;SDS011;63749;49.186;9.222;2023-02-01T10:43:56;12.15;;;2.80;;
75169;SDS011;63749;49.186;9.222;2023-02-01T10:46:24;13.55;;;3.38;;
75169;SDS011;63749;49.186;9.222;2023-02-01T10:48:50;11.33;;;3.30;;
75169;SDS011;63749;49.186;9.222;2023-02-01T10:51:23;9.02;;;3.00;;
75169;SDS011;63749;49.186;9.222;2023-02-01T10:54:03;13.77;;;3.10;;
75169;SDS011;63749;49.186;9.222;2023-02-01T10:56:37;10.27;;;2.97;;
75169;SDS011;63749;49.186;9.222;2023-02-01T10:59:04;11.80;;;3.00;;
75169;SDS011;63749;49.186;9.222;2023-02-01T11:01:31;8.35;;;2.60;;
75169;SDS011;63749;49.186;9.222;2023-02-01T11:04:01;10.40;;;3.15;;
75169;SDS011;63749;49.186;9.222;2023-02-01T11:06:38;9.13;;;2.95;;
75169;SDS011;63749;49.186;9.222;2023-02-01T11:11:30;8.93;;;2.60;;
75169;SDS011;63749;49.186;9.222;2023-02-01T11:13:57;8.47;;;2.40;;
75169;SDS011;63749;49.186;9.222;2023-02-01T11:16:37;10.50;;;2.95;;
75169;SDS011;63749;49.186;9.222;2023-02-01T11:19:04;11.93;;;3.40;;
75169;SDS011;63749;49.186;9.222;2023-02-01T11:21:30;9.10;;;2.90;;
75169;SDS011;63749;49.186;9.222;2023-02-01T11:24:00;13.00;;;2.97;;
75169;SDS011;63749;49.186;9.222;2023-02-01T11:26:30;12.50;;;3.60;;
75169;SDS011;63749;49.186;9.222;2023-02-01T11:29:04;11.95;;;4.22;;
75169;SDS011;63749;49.186;9.222;2023-02-01T11:31:35;9.68;;;3.40;;
75169;SDS011;63749;49.186;9.222;2023-02-01T11:34:07;13.97;;;3.63;;
75169;SDS011;63749;49.186;9.222;2023-02-01T11:36:39;13.43;;;3.25;;
75169;SDS011;63749;49.186;9.222;2023-02-01T11:39:10;11.18;;;2.70;;
75169;SDS011;63749;49.186;9.222;2023-02-01T11:41:55;9.32;;;2.80;;
75169;SDS011;63749;49.186;9.222;2023-02-01T11:44:32;11.27;;;2.80;;
75169;SDS011;63749;49.186;9.222;2023-02-01T11:49:47;9.57;;;2.63;;
75169;SDS011;63749;49.186;9.222;2023-02-01T11:55:14;9.93;;;2.80;;
75169;SDS011;63749;49.186;9.222;2023-02-01T12:00:40;12.20;;;3.05;;
75169;SDS011;63749;49.186;9.222;2023-02-01T12:14:29;12.65;;;3.03;;
75169;SDS011;63749;49.186;9.222;2023-02-01T12:20:02;10.93;;;2.40;;
75169;SDS011;63749;49.186;9.222;2023-02-01T12:36:46;10.23;;;2.42;;
75169;SDS011;63749;49.186;9.222;2023-02-01T12:47:05;11.10;;;3.08;;
75169;SDS011;63749;49.186;9.222;2023-02-01T12:52:37;12.93;;;3.13;;
75169;SDS011;63749;49.186;9.222;2023-02-01T12:55:15;13.75;;;2.90;;
75169;SDS011;63749;49.186;9.222;2023-02-01T12:57:43;13.65;;;3.15;;
75169;SDS011;63749;49.186;9.222;2023-02-01T13:02:50;9.35;;;2.58;;
75169;SDS011;63749;49.186;9.222;2023-02-01T13:05:22;12.23;;;2.40;;
75169;SDS011;63749;49.186;9.222;2023-02-01T13:08:12;16.40;;;2.70;;
75169;SDS011;63749;49.186;9.222;2023-02-01T13:10:46;9.05;;;2.47;;
75169;SDS011;63749;49.186;9.222;2023-02-01T13:13:29;10.95;;;2.80;;
75169;SDS011;63749;49.186;9.222;2023-02-01T13:16:12;8.73;;;2.00;;
75169;SDS011;63749;49.186;9.222;2023-02-01T13:18:43;13.50;;;2.83;;
75169;SDS011;63749;49.186;9.222;2023-02-01T13:21:14;17.15;;;3.00;;
75169;SDS011;63749;49.186;9.222;2023-02-01T13:23:43;8.50;;;2.60;;
75169;SDS011;63749;49.186;9.222;2023-02-01T13:26:11;11.23;;;2.78;;
75169;SDS011;63749;49.186;9.222;2023-02-01T13:42:25;12.95;;;3.45;;
75169;SDS011;63749;49.186;9.222;2023-02-01T13:44:58;10.15;;;2.63;;
75169;SDS011;63749;49.186;9.222;2023-02-01T13:47:30;10.65;;;2.55;;
75169;SDS011;63749;49.186;9.222;2023-02-01T13:50:00;7.77;;;2.00;;
75169;SDS011;63749;49.186;9.222;2023-02-01T13:52:36;11.38;;;2.20;;
75169;SDS011;63749;49.186;9.222;2023-02-01T13:57:39;15.65;;;3.10;;
75169;SDS011;63749;49.186;9.222;2023-02-01T14:00:08;10.27;;;2.72;;
75169;SDS011;63749;49.186;9.222;2023-02-01T14:05:10;10.43;;;2.45;;
75169;SDS011;63749;49.186;9.222;2023-02-01T14:07:57;11.85;;;2.53;;
75169;SDS011;63749;49.186;9.222;2023-02-01T14:24:33;14.82;;;3.20;;
75169;SDS011;63749;49.186;9.222;2023-02-01T14:26:43;10.07;;;2.72;;
75169;SDS011;63749;49.186;9.222;2023-02-01T14:31:47;14.30;;;2.50;;
75169;SDS011;63749;49.186;9.222;2023-02-01T14:36:56;14.15;;;2.85;;
75169;SDS011;63749;49.186;9.222;2023-02-01T14:41:57;15.17;;;2.53;;
75169;SDS011;63749;49.186;9.222;2023-02-01T14:44:26;13.38;;;2.55;;
75169;SDS011;63749;49.186;9.222;2023-02-01T14:49:39;13.10;;;2.53;;
75169;SDS011;63749;49.186;9.222;2023-02-01T14:52:16;11.07;;;2.80;;
75169;SDS011;63749;49.186;9.222;2023-02-01T14:54:45;13.80;;;2.40;;
75169;SDS011;63749;49.186;9.222;2023-02-01T14:57:18;15.82;;;2.35;;
75169;SDS011;63749;49.186;9.222;2023-02-01T14:59:45;9.90;;;2.42;;
75169;SDS011;63749;49.186;9.222;2023-02-01T15:02:19;13.18;;;2.65;;
75169;SDS011;63749;49.186;9.222;2023-02-01T15:04:52;11.67;;;3.00;;
75169;SDS011;63749;49.186;9.222;2023-02-01T15:07:20;9.70;;;2.45;;
75169;SDS011;63749;49.186;9.222;2023-02-01T15:09:47;13.20;;;2.60;;
75169;SDS011;63749;49.186;9.222;2023-02-01T15:12:31;9.88;;;2.50;;
75169;SDS011;63749;49.186;9.222;2023-02-01T15:15:10;12.95;;;2.58;;
75169;SDS011;63749;49.186;9.222;2023-02-01T15:17:35;11.03;;;2.57;;
75169;SDS011;63749;49.186;9.222;2023-02-01T15:20:03;8.88;;;2.78;;
75169;SDS011;63749;49.186;9.222;2023-02-01T15:22:39;14.13;;;2.90;;
75169;SDS011;63749;49.186;9.222;2023-02-01T15:25:04;11.88;;;2.47;;
75169;SDS011;63749;49.186;9.222;2023-02-01T15:27:31;12.53;;;2.90;;
75169;SDS011;63749;49.186;9.222;2023-02-01T15:30:07;13.05;;;3.03;;
75169;SDS011;63749;49.186;9.222;2023-02-01T15:32:38;16.95;;;3.30;;
75169;SDS011;63749;49.186;9.222;2023-02-01T15:35:05;12.35;;;3.17;;
75169;SDS011;63749;49.186;9.222;2023-02-01T15:37:51;13.38;;;2.70;;
75169;SDS011;63749;49.186;9.222;2023-02-01T15:40:20;16.27;;;3.50;;
75169;SDS011;63749;49.186;9.222;2023-02-01T15:42:56;11.90;;;2.60;;
75169;SDS011;63749;49.186;9.222;2023-02-01T15:45:27;13.43;;;3.17;;
75169;SDS011;63749;49.186;9.222;2023-02-01T15:47:57;12.82;;;2.72;;
75169;SDS011;63749;49.186;9.222;2023-02-01T15:50:24;11.43;;;2.75;;
75169;SDS011;63749;49.186;9.222;2023-02-01T15:52:52;11.85;;;2.70;;
75169;SDS011;63749;49.186;9.222;2023-02-01T15:55:22;12.23;;;2.88;;
75169;SDS011;63749;49.186;9.222;2023-02-01T15:57:58;12.73;;;2.70;;
75169;SDS011;63749;49.186;9.222;2023-02-01T16:00:25;12.48;;;2.75;;
75169;SDS011;63749;49.186;9.222;2023-02-01T16:03:01;15.35;;;2.92;;
75169;SDS011;63749;49.186;9.222;2023-02-01T16:05:36;11.68;;;2.47;;
75169;SDS011;63749;49.186;9.222;2023-02-01T16:08:10;14.17;;;2.40;;
75169;SDS011;63749;49.186;9.222;2023-02-01T16:10:40;22.33;;;2.75;;
75169;SDS011;63749;49.186;9.222;2023-02-01T16:13:08;15.45;;;3.00;;
75169;SDS011;63749;49.186;9.222;2023-02-01T16:15:34;11.13;;;2.50;;
75169;SDS011;63749;49.186;9.222;2023-02-01T16:17:59;13.20;;;2.73;;
75169;SDS011;63749;49.186;9.222;2023-02-01T16:20:24;13.57;;;2.83;;
75169;SDS011;63749;49.186;9.222;2023-02-01T16:22:50;9.70;;;2.63;;
75169;SDS011;63749;49.186;9.222;2023-02-01T16:25:15;10.90;;;2.77;;
75169;SDS011;63749;49.186;9.222;2023-02-01T16:27:41;15.50;;;3.20;;
75169;SDS011;63749;49.186;9.222;2023-02-01T16:30:06;14.83;;;3.63;;
75169;SDS011;63749;49.186;9.222;2023-02-01T16:32:34;12.23;;;3.00;;
75169;SDS011;63749;49.186;9.222;2023-02-01T16:35:03;17.92;;;3.40;;
75169;SDS011;63749;49.186;9.222;2023-02-01T16:37:38;15.27;;;2.80;;
75169;SDS011;63749;49.186;9.222;2023-02-01T16:40:04;12.63;;;3.53;;
75169;SDS011;63749;49.186;9.222;2023-02-01T16:42:29;13.67;;;3.90;;
75169;SDS011;63749;49.186;9.222;2023-02-01T16:44:55;11.93;;;3.80;;
75169;SDS011;63749;49.186;9.222;2023-02-01T16:47:24;10.10;;;2.38;;
75169;SDS011;63749;49.186;9.222;2023-02-01T16:49:49;11.70;;;2.67;;
75169;SDS011;63749;49.186;9.222;2023-02-01T16:52:20;11.73;;;2.33;;
75169;SDS011;63749;49.186;9.222;2023-02-01T16:54:47;11.50;;;2.55;;
75169;SDS011;63749;49.186;9.222;2023-02-01T16:57:14;12.70;;;2.80;;
75169;SDS011;63749;49.186;9.222;2023-02-01T16:59:41;12.30;;;2.40;;
75169;SDS011;63749;49.186;9.222;2023-02-01T17:02:12;14.67;;;2.70;;
75169;SDS011;63749;49.186;9.222;2023-02-01T17:04:39;11.38;;;2.53;;
75169;SDS011;63749;49.186;9.222;2023-02-01T17:07:04;12.40;;;2.73;;
75169;SDS011;63749;49.186;9.222;2023-02-01T17:09:37;13.20;;;2.78;;
75169;SDS011;63749;49.186;9.222;2023-02-01T17:12:03;14.15;;;2.90;;
75169;SDS011;63749;49.186;9.222;2023-02-01T17:14:30;11.32;;;2.58;;
75169;SDS011;63749;49.186;9.222;2023-02-01T17:17:04;14.25;;;2.90;;
75169;SDS011;63749;49.186;9.222;2023-02-01T17:19:29;16.63;;;3.03;;